Time;durP1;ratioP1;P1;durP2;ratioP2;P2;SDS_P1;SDS_P2;PMS_P1;PMS_P2;Temp;Humidity;BMP_temperature;BMP_pressure;BME280_temperature;BME280_humidity;BME280_pressure;Samples;Min_cycle;Max_cycle;Signal;HPM_P1;HPM_P2
2023/10/08 00:00:49;;;;;;;18.92;9.73;;;;;;;;;;5081316;28;20036;-82
2023/10/08 00:03:17;;;;;;;19.42;10.52;;;;;;;;;;5079860;28;20044;-82
2023/10/08 00:05:45;;;;;;;16.02;9.23;;;;;;;;;;5080313;28;20449;-82
2023/10/08 00:08:14;;;;;;;17.42;8.60;;;;;;;;;;5080470;28;20318;-82
2023/10/08 00:10:41;;;;;;;13.45;9.07;;;;;;;;;;5081048;28;20031;-82
2023/10/08 00:13:12;;;;;;;16.70;8.88;;;;;;;;;;5080295;28;20369;-82
2023/10/08 00:15:41;;;;;;;16.90;8.50;;;;;;;;;;5079285;28;20052;-82
2023/10/08 00:18:11;;;;;;;18.00;8.07;;;;;;;;;;5080160;28;20074;-82
2023/10/08 00:20:54;;;;;;;15.65;8.43;;;;;;;;;;5079432;28;20025;-82
2023/10/08 00:23:21;;;;;;;15.88;8.20;;;;;;;;;;5080340;28;20429;-82
2023/10/08 00:25:50;;;;;;;16.00;8.10;;;;;;;;;;5079659;28;20311;-82
2023/10/08 00:28:17;;;;;;;17.63;8.32;;;;;;;;;;5079897;28;20410;-82
2023/10/08 00:30:44;;;;;;;15.07;8.05;;;;;;;;;;5079361;28;20035;-82
2023/10/08 00:33:16;;;;;;;13.93;7.47;;;;;;;;;;5079007;28;20321;-82
2023/10/08 00:35:43;;;;;;;13.70;7.63;;;;;;;;;;5080447;28;20048;-82
2023/10/08 00:38:14;;;;;;;16.13;7.63;;;;;;;;;;5079881;28;20020;-82
2023/10/08 00:40:48;;;;;;;13.63;7.43;;;;;;;;;;5080244;28;20299;-83
2023/10/08 00:43:39;;;;;;;14.02;7.57;;;;;;;;;;5079083;28;20074;-83
2023/10/08 00:46:18;;;;;;;18.33;7.18;;;;;;;;;;5080053;28;20032;-83
2023/10/08 00:48:45;;;;;;;11.63;6.95;;;;;;;;;;5062234;28;20037;-83
2023/10/08 00:53:52;;;;;;;13.75;7.15;;;;;;;;;;5060278;28;20036;-83
2023/10/08 00:56:19;;;;;;;16.60;7.65;;;;;;;;;;5059724;28;20036;-83
2023/10/08 00:58:53;;;;;;;12.82;7.43;;;;;;;;;;5075648;28;20048;-83
2023/10/08 01:01:22;;;;;;;12.13;6.80;;;;;;;;;;5079814;28;20429;-82
2023/10/08 01:03:49;;;;;;;17.38;7.07;;;;;;;;;;5079395;28;20322;-83
2023/10/08 01:06:18;;;;;;;16.17;6.90;;;;;;;;;;5079827;28;20032;-82
2023/10/08 01:08:52;;;;;;;13.68;7.82;;;;;;;;;;5078827;28;20027;-83
2023/10/08 01:11:20;;;;;;;14.07;7.03;;;;;;;;;;5079956;28;20078;-83
2023/10/08 01:14:07;;;;;;;16.08;7.45;;;;;;;;;;5079775;28;20535;-83
2023/10/08 01:16:34;;;;;;;15.20;6.85;;;;;;;;;;5079236;28;20056;-83
2023/10/08 01:19:00;;;;;;;15.98;7.15;;;;;;;;;;5061013;28;20051;-83
2023/10/08 01:21:40;;;;;;;14.00;6.70;;;;;;;;;;5058703;28;20033;-83
2023/10/08 01:24:07;;;;;;;12.60;6.70;;;;;;;;;;5058438;28;20063;-83
2023/10/08 01:26:34;;;;;;;15.05;6.95;;;;;;;;;;5058162;28;20025;-83
2023/10/08 01:29:32;;;;;;;17.20;7.25;;;;;;;;;;5059259;28;20408;-84
2023/10/08 01:31:58;;;;;;;11.63;6.93;;;;;;;;;;5059343;28;20055;-83
2023/10/08 01:34:30;;;;;;;14.25;7.32;;;;;;;;;;5059257;28;20033;-84
2023/10/08 01:37:03;;;;;;;12.77;6.45;;;;;;;;;;5059109;28;20025;-83
2023/10/08 01:39:32;;;;;;;13.30;7.15;;;;;;;;;;5059546;28;20033;-83
2023/10/08 01:41:58;;;;;;;13.27;6.93;;;;;;;;;;5058641;28;20032;-83
2023/10/08 01:44:24;;;;;;;14.52;7.15;;;;;;;;;;5058096;28;20028;-83
2023/10/08 01:46:50;;;;;;;13.85;6.72;;;;;;;;;;5058935;28;20119;-83
2023/10/08 01:49:21;;;;;;;12.20;6.97;;;;;;;;;;5057984;28;20101;-83
2023/10/08 01:51:47;;;;;;;12.70;6.80;;;;;;;;;;5077240;28;20481;-83
2023/10/08 01:54:17;;;;;;;12.48;6.25;;;;;;;;;;5078714;28;20040;-83
2023/10/08 01:56:43;;;;;;;14.13;6.65;;;;;;;;;;5078920;28;20028;-83
2023/10/08 01:59:11;;;;;;;10.45;6.43;;;;;;;;;;5078986;28;20027;-83
2023/10/08 02:01:38;;;;;;;11.07;6.53;;;;;;;;;;5075562;28;20124;-83
2023/10/08 02:04:07;;;;;;;12.18;7.35;;;;;;;;;;5078659;28;20413;-83
2023/10/08 02:06:33;;;;;;;13.02;6.78;;;;;;;;;;5078896;28;20040;-83
2023/10/08 02:08:59;;;;;;;11.20;6.68;;;;;;;;;;5078292;28;20063;-82
2023/10/08 02:11:27;;;;;;;14.30;6.85;;;;;;;;;;5066062;28;20058;-83
2023/10/08 02:13:53;;;;;;;14.48;6.68;;;;;;;;;;5058434;28;20037;-83
2023/10/08 02:16:19;;;;;;;21.02;6.60;;;;;;;;;;5058261;28;20072;-82
2023/10/08 02:18:46;;;;;;;11.65;6.55;;;;;;;;;;5058075;28;20096;-82
2023/10/08 02:21:12;;;;;;;13.00;6.43;;;;;;;;;;5058038;28;20021;-82
2023/10/08 02:23:38;;;;;;;12.40;6.63;;;;;;;;;;5058292;28;20417;-83
2023/10/08 02:26:05;;;;;;;15.43;6.85;;;;;;;;;;5058186;28;20021;-82
2023/10/08 02:28:51;;;;;;;12.23;6.47;;;;;;;;;;5058130;28;20075;-83
2023/10/08 02:31:18;;;;;;;13.98;7.35;;;;;;;;;;5068135;28;20032;-82
2023/10/08 02:33:44;;;;;;;12.57;7.07;;;;;;;;;;5078092;28;20314;-83
2023/10/08 02:36:10;;;;;;;12.65;6.55;;;;;;;;;;5077736;28;20410;-83
2023/10/08 02:38:38;;;;;;;15.95;7.20;;;;;;;;;;5076903;28;20021;-83
2023/10/08 02:41:06;;;;;;;12.90;6.65;;;;;;;;;;5077485;28;20414;-82
2023/10/08 02:43:34;;;;;;;12.48;6.75;;;;;;;;;;5077470;28;20055;-82
2023/10/08 02:46:00;;;;;;;13.63;7.15;;;;;;;;;;5076958;28;20044;-82
2023/10/08 02:48:27;;;;;;;13.05;6.35;;;;;;;;;;5077704;28;20433;-82
2023/10/08 02:50:54;;;;;;;12.30;7.03;;;;;;;;;;5071617;28;20033;-82
2023/10/08 02:53:25;;;;;;;10.93;6.65;;;;;;;;;;5057776;28;20300;-82
2023/10/08 02:55:52;;;;;;;12.60;6.80;;;;;;;;;;5057847;28;20025;-82
2023/10/08 02:58:21;;;;;;;13.18;6.28;;;;;;;;;;5057737;28;20075;-82
2023/10/08 03:00:48;;;;;;;14.05;7.20;;;;;;;;;;5062144;28;20044;-82
2023/10/08 03:03:18;;;;;;;11.63;6.57;;;;;;;;;;5076399;28;20074;-82
2023/10/08 03:05:47;;;;;;;11.85;6.93;;;;;;;;;;5077777;28;20131;-82
2023/10/08 03:08:19;;;;;;;12.48;6.70;;;;;;;;;;5077686;28;20029;-83
2023/10/08 03:10:45;;;;;;;11.50;6.70;;;;;;;;;;5077070;28;20108;-82
2023/10/08 03:13:12;;;;;;;11.18;6.93;;;;;;;;;;5077350;28;20363;-82
2023/10/08 03:15:40;;;;;;;14.93;7.47;;;;;;;;;;5076140;28;20093;-83
2023/10/08 03:18:10;;;;;;;12.43;6.78;;;;;;;;;;5077193;28;20046;-82
2023/10/08 03:20:43;;;;;;;12.82;6.82;;;;;;;;;;5074333;28;20016;-82
2023/10/08 03:23:23;;;;;;;11.98;6.03;;;;;;;;;;5057634;28;20025;-83
2023/10/08 03:26:33;;;;;;;15.38;6.85;;;;;;;;;;5057358;28;20033;-82
2023/10/08 03:28:43;;;;;;;16.60;7.60;;;;;;;;;;5056984;28;20029;-83
2023/10/08 03:31:17;;;;;;;12.95;6.82;;;;;;;;;;5056173;28;20033;-83
2023/10/08 03:33:49;;;;;;;12.02;6.63;;;;;;;;;;5057126;28;20037;-83
2023/10/08 03:36:20;;;;;;;14.02;7.10;;;;;;;;;;5056886;28;20037;-83
2023/10/08 03:38:52;;;;;;;;;;;;;;;;;;5057680;28;20067;-82
2023/10/08 03:41:28;;;;;;;16.45;7.07;;;;;;;;;;5057446;28;19944;-82
2023/10/08 03:44:12;;;;;;;11.60;7.07;;;;;;;;;;5056972;28;20349;-82
2023/10/08 03:46:46;;;;;;;13.40;7.60;;;;;;;;;;5056185;28;20037;-83
2023/10/08 03:49:24;;;;;;;12.25;6.80;;;;;;;;;;5057102;28;20029;-83
2023/10/08 03:51:51;;;;;;;14.30;6.75;;;;;;;;;;5056883;28;20438;-83
2023/10/08 03:54:33;;;;;;;14.85;6.43;;;;;;;;;;5056899;28;20108;-83
2023/10/08 03:57:00;;;;;;;19.85;7.38;;;;;;;;;;5056962;28;20441;-83
2023/10/08 03:59:30;;;;;;;17.98;7.10;;;;;;;;;;5057100;28;20354;-83
2023/10/08 04:02:14;;;;;;;13.75;6.93;;;;;;;;;;5069712;28;20070;-83
2023/10/08 04:04:56;;;;;;;13.30;7.10;;;;;;;;;;5075872;28;20021;-83
2023/10/08 04:12:47;;;;;;;14.40;7.15;;;;;;;;;;5054742;28;20033;-82
2023/10/08 04:15:16;;;;;;;15.30;7.15;;;;;;;;;;5054488;28;20430;-82
2023/10/08 04:17:45;;;;;;;14.80;6.80;;;;;;;;;;5054611;28;20132;-82
2023/10/08 04:22:55;;;;;;;12.10;6.70;;;;;;;;;;5054777;28;20032;-82
2023/10/08 04:25:21;;;;;;;12.98;7.50;;;;;;;;;;5054851;28;20028;-82
2023/10/08 04:27:49;;;;;;;20.75;7.53;;;;;;;;;;5054500;28;20045;-82
2023/10/08 04:30:16;;;;;;;13.90;7.03;;;;;;;;;;5054745;28;20063;-82
2023/10/08 04:32:42;;;;;;;18.42;7.57;;;;;;;;;;5054687;28;20052;-82
2023/10/08 04:35:14;;;;;;;19.33;8.02;;;;;;;;;;5054663;28;20102;-83
2023/10/08 04:37:41;;;;;;;;;;;;;;;;;;5054970;28;20024;-83
2023/10/08 04:40:16;;;;;;;12.27;7.10;;;;;;;;;;5054591;28;19904;-82
2023/10/08 04:42:45;;;;;;;14.57;7.25;;;;;;;;;;5055241;28;20446;-83
2023/10/08 04:45:13;;;;;;;14.13;7.18;;;;;;;;;;5058272;28;20021;-83
2023/10/08 04:47:42;;;;;;;13.23;6.25;;;;;;;;;;5073120;28;20047;-83
2023/10/08 04:50:14;;;;;;;15.13;7.03;;;;;;;;;;5080264;28;20020;-83
2023/10/08 04:53:07;;;;;;;12.02;6.97;;;;;;;;;;5080098;28;20029;-85
2023/10/08 04:55:30;;;;;;;10.98;6.32;;;;;;;;;;5079426;28;20111;-83
2023/10/08 04:57:58;;;;;;;17.67;6.82;;;;;;;;;;5078579;28;20033;-83
2023/10/08 05:00:41;;;;;;;11.30;6.75;;;;;;;;;;5079852;28;20024;-82
2023/10/08 05:03:20;;;;;;;13.50;6.45;;;;;;;;;;5079770;28;20027;-82
2023/10/08 05:06:07;;;;;;;10.65;5.95;;;;;;;;;;5079692;28;20112;-83
2023/10/08 05:08:47;;;;;;;14.00;6.72;;;;;;;;;;5079443;28;20037;-84
2023/10/08 05:11:24;;;;;;;12.32;6.90;;;;;;;;;;5079531;28;20028;-83
2023/10/08 05:14:16;;;;;;;16.02;6.70;;;;;;;;;;5078781;28;20041;-83
2023/10/08 05:17:00;;;;;;;12.88;6.80;;;;;;;;;;5077888;28;20357;-83
2023/10/08 05:27:57;;;;;;;9.93;5.97;;;;;;;;;;5037418;28;20209;-83
2023/10/08 05:38:37;;;;;;;14.25;7.18;;;;;;;;;;5037263;28;20033;-83
2023/10/08 05:49:02;;;;;;;15.75;6.63;;;;;;;;;;5037358;28;20076;-82
2023/10/08 06:02:29;;;;;;;11.65;6.57;;;;;;;;;;5036829;28;20320;-82
2023/10/08 06:05:20;;;;;;;12.13;6.03;;;;;;;;;;5096352;28;20427;-82
2023/10/08 06:07:56;;;;;;;10.60;6.28;;;;;;;;;;5098954;28;20490;-82
2023/10/08 06:13:19;;;;;;;11.40;6.35;;;;;;;;;;5093932;28;20326;-82
2023/10/08 06:16:05;;;;;;;14.30;6.32;;;;;;;;;;5092670;28;20059;-81
2023/10/08 06:18:31;;;;;;;14.02;6.15;;;;;;;;;;5097380;28;20039;-87
2023/10/08 06:21:15;;;;;;;13.88;6.70;;;;;;;;;;5098414;28;20009;-80
2023/10/08 06:23:46;;;;;;;14.70;6.90;;;;;;;;;;5097321;28;20153;-80
2023/10/08 06:28:39;;;;;;;14.02;8.65;;;;;;;;;;5098667;28;20122;-86
2023/10/08 06:34:27;;;;;;;10.68;6.65;;;;;;;;;;5072151;28;20055;-85
2023/10/08 06:36:54;;;;;;;13.70;6.20;;;;;;;;;;5077307;28;20067;-85
2023/10/08 06:39:25;;;;;;;11.48;6.65;;;;;;;;;;5077305;28;20158;-87
2023/10/08 06:41:51;;;;;;;14.60;6.28;;;;;;;;;;5078175;28;20043;-85
2023/10/08 06:44:17;;;;;;;12.00;5.95;;;;;;;;;;5078201;28;20115;-85
2023/10/08 06:46:44;;;;;;;14.48;6.25;;;;;;;;;;5076762;28;20036;-76
2023/10/08 06:49:13;;;;;;;11.27;5.97;;;;;;;;;;5076876;28;20440;-75
2023/10/08 06:51:41;;;;;;;9.80;5.95;;;;;;;;;;5077336;28;20074;-75
2023/10/08 06:54:10;;;;;;;12.35;6.43;;;;;;;;;;5077396;28;20028;-75
2023/10/08 06:56:37;;;;;;;12.07;6.22;;;;;;;;;;5077054;28;20024;-75
2023/10/08 06:59:03;;;;;;;12.88;6.20;;;;;;;;;;5076968;28;20024;-75
2023/10/08 07:01:51;;;;;;;13.65;5.85;;;;;;;;;;5076130;28;20028;-75
2023/10/08 07:04:16;;;;;;;14.18;7.43;;;;;;;;;;5076581;28;20043;-75
2023/10/08 07:06:46;;;;;;;12.80;7.20;;;;;;;;;;5075318;28;20066;-75
2023/10/08 07:09:22;;;;;;;12.75;6.55;;;;;;;;;;5075946;28;20024;-89
2023/10/08 07:11:54;;;;;;;9.82;5.60;;;;;;;;;;5077561;28;20047;-86
2023/10/08 07:14:20;;;;;;;11.57;5.03;;;;;;;;;;5073601;28;20043;-86
2023/10/08 07:16:48;;;;;;;11.23;5.30;;;;;;;;;;5077194;28;20091;-86
2023/10/08 07:19:17;;;;;;;18.48;8.00;;;;;;;;;;5076992;28;20037;-87
2023/10/08 07:21:47;;;;;;;12.55;5.70;;;;;;;;;;5076818;28;20039;-85
2023/10/08 07:24:21;;;;;;;15.98;5.75;;;;;;;;;;5077464;28;20024;-86
2023/10/08 07:26:49;;;;;;;14.98;6.43;;;;;;;;;;5077054;28;20287;-88
2023/10/08 07:29:22;;;;;;;11.63;5.40;;;;;;;;;;5077250;28;20074;-85
2023/10/08 07:31:58;;;;;;;14.30;9.30;;;;;;;;;;5075686;28;20414;-84
2023/10/08 07:36:51;;;;;;;13.27;6.55;;;;;;;;;;5076554;28;20159;-85
2023/10/08 07:39:33;;;;;;;60.22;38.40;;;;;;;;;;5076925;28;20020;-84
2023/10/08 07:42:08;;;;;;;11.95;7.35;;;;;;;;;;5076036;28;20025;-84
2023/10/08 07:44:38;;;;;;;17.02;6.28;;;;;;;;;;5077780;28;20054;-85
2023/10/08 07:47:10;;;;;;;15.82;5.72;;;;;;;;;;5077132;28;20154;-85
2023/10/08 07:49:36;;;;;;;;;;;;;;;;;;5076599;28;20025;-85
2023/10/08 07:52:04;;;;;;;17.23;7.32;;;;;;;;;;5077516;28;20205;-85
2023/10/08 07:54:34;;;;;;;15.40;5.30;;;;;;;;;;5077542;28;20029;-85
2023/10/08 07:57:10;;;;;;;16.13;9.85;;;;;;;;;;5076878;28;20025;-84
2023/10/08 08:02:41;;;;;;;50.78;33.60;;;;;;;;;;5077285;28;20047;-86
2023/10/08 08:05:08;;;;;;;15.50;6.38;;;;;;;;;;5077560;28;20103;-85
2023/10/08 08:07:34;;;;;;;19.02;9.90;;;;;;;;;;5077477;28;20040;-87
2023/10/08 08:10:00;;;;;;;9.90;5.30;;;;;;;;;;5076072;28;20025;-84
2023/10/08 08:12:32;;;;;;;30.83;16.30;;;;;;;;;;5076724;28;20028;-84
2023/10/08 08:14:59;;;;;;;;;;;;;;;;;;5077099;28;20063;-85
2023/10/08 08:17:25;;;;;;;17.42;9.38;;;;;;;;;;5075196;28;20206;-85
2023/10/08 08:19:51;;;;;;;22.13;8.48;;;;;;;;;;5081229;28;20395;-85
